sensor_id;sensor_type;location;lat;lon;timestamp;pressure;altitude;pressure_sealevel;temperature;humidity
58753;BME280;44525;46.052;13.610;2023-06-19T00:01:41;65501.63;;;-149.14;100.00
58753;BME280;44525;46.052;13.610;2023-06-19T00:04:07;65501.63;;;-149.14;100.00
58753;BME280;44525;46.052;13.610;2023-06-19T00:06:32;65501.63;;;-149.14;100.00
58753;BME280;44525;46.052;13.610;2023-06-19T00:08:57;65501.63;;;-149.14;100.00
58753;BME280;44525;46.052;13.610;2023-06-19T00:11:23;65501.63;;;-149.14;100.00
58753;BME280;44525;46.052;13.610;2023-06-19T00:13:49;65501.63;;;-149.14;100.00
58753;BME280;44525;46.052;13.610;2023-06-19T00:16:15;65501.63;;;-149.14;100.00
58753;BME280;44525;46.052;13.610;2023-06-19T00:18:40;65501.63;;;-149.14;100.00
58753;BME280;44525;46.052;13.610;2023-06-19T00:21:07;65501.63;;;-149.14;100.00
58753;BME280;44525;46.052;13.610;2023-06-19T00:23:33;65501.63;;;-149.14;100.00
58753;BME280;44525;46.052;13.610;2023-06-19T00:25:59;65501.63;;;-149.14;100.00
58753;BME280;44525;46.052;13.610;2023-06-19T00:28:27;65501.63;;;-149.14;100.00
58753;BME280;44525;46.052;13.610;2023-06-19T00:30:53;65501.63;;;-149.14;100.00
58753;BME280;44525;46.052;13.610;2023-06-19T00:33:18;65501.63;;;-149.14;100.00
58753;BME280;44525;46.052;13.610;2023-06-19T00:35:44;65501.63;;;-149.14;100.00
58753;BME280;44525;46.052;13.610;2023-06-19T00:38:09;65501.63;;;-149.14;100.00
58753;BME280;44525;46.052;13.610;2023-06-19T00:40:35;65501.63;;;-149.14;100.00
58753;BME280;44525;46.052;13.610;2023-06-19T00:43:00;65501.63;;;-149.14;100.00
58753;BME280;44525;46.052;13.610;2023-06-19T00:45:26;65501.63;;;-149.14;100.00
58753;BME280;44525;46.052;13.610;2023-06-19T00:47:53;65501.63;;;-149.14;100.00
58753;BME280;44525;46.052;13.610;2023-06-19T00:50:18;65501.63;;;-149.14;100.00
58753;BME280;44525;46.052;13.610;2023-06-19T00:52:44;65501.63;;;-149.14;100.00
58753;BME280;44525;46.052;13.610;2023-06-19T00:55:10;65501.63;;;-149.14;100.00
58753;BME280;44525;46.052;13.610;2023-06-19T00:57:36;65501.63;;;-149.14;100.00
58753;BME280;44525;46.052;13.610;2023-06-19T01:00:02;65501.63;;;-149.14;100.00
58753;BME280;44525;46.052;13.610;2023-06-19T01:02:32;65501.63;;;-149.14;100.00
58753;BME280;44525;46.052;13.610;2023-06-19T01:04:58;65501.63;;;-149.14;100.00
58753;BME280;44525;46.052;13.610;2023-06-19T01:10:34;65501.63;;;-149.14;100.00
58753;BME280;44525;46.052;13.610;2023-06-19T01:13:06;65501.63;;;-149.14;100.00
58753;BME280;44525;46.052;13.610;2023-06-19T01:15:34;65501.63;;;-149.14;100.00
58753;BME280;44525;46.052;13.610;2023-06-19T01:18:00;65501.63;;;-149.14;100.00
58753;BME280;44525;46.052;13.610;2023-06-19T01:20:27;65501.63;;;-149.14;100.00
58753;BME280;44525;46.052;13.610;2023-06-19T01:22:53;65501.63;;;-149.14;100.00
58753;BME280;44525;46.052;13.610;2023-06-19T01:25:22;65501.63;;;-149.14;100.00
58753;BME280;44525;46.052;13.610;2023-06-19T01:27:47;65501.63;;;-149.14;100.00
58753;BME280;44525;46.052;13.610;2023-06-19T01:30:13;65501.63;;;-149.14;100.00
58753;BME280;44525;46.052;13.610;2023-06-19T01:32:56;65501.63;;;-149.14;100.00
58753;BME280;44525;46.052;13.610;2023-06-19T01:35:30;65501.63;;;-149.14;100.00
58753;BME280;44525;46.052;13.610;2023-06-19T01:37:56;65501.63;;;-149.14;100.00
58753;BME280;44525;46.052;13.610;2023-06-19T01:40:24;65501.63;;;-149.14;100.00
58753;BME280;44525;46.052;13.610;2023-06-19T01:42:52;65501.63;;;-149.14;100.00
58753;BME280;44525;46.052;13.610;2023-06-19T01:45:18;65501.63;;;-149.14;100.00
58753;BME280;44525;46.052;13.610;2023-06-19T01:47:43;65501.63;;;-149.14;100.00
58753;BME280;44525;46.052;13.610;2023-06-19T01:50:10;65501.63;;;-149.14;100.00
58753;BME280;44525;46.052;13.610;2023-06-19T01:52:37;65501.63;;;-149.14;100.00
58753;BME280;44525;46.052;13.610;2023-06-19T01:55:03;65501.63;;;-149.14;100.00
58753;BME280;44525;46.052;13.610;2023-06-19T01:57:28;65501.63;;;-149.14;100.00
58753;BME280;44525;46.052;13.610;2023-06-19T01:59:53;65501.63;;;-149.14;100.00
58753;BME280;44525;46.052;13.610;2023-06-19T02:02:19;65501.63;;;-149.14;100.00
58753;BME280;44525;46.052;13.610;2023-06-19T02:04:44;65501.63;;;-149.14;100.00
58753;BME280;44525;46.052;13.610;2023-06-19T02:07:09;65501.63;;;-149.14;100.00
58753;BME280;44525;46.052;13.610;2023-06-19T02:09:37;65501.63;;;-149.14;100.00
58753;BME280;44525;46.052;13.610;2023-06-19T02:12:03;65501.63;;;-149.14;100.00
58753;BME280;44525;46.052;13.610;2023-06-19T02:14:28;65501.63;;;-149.14;100.00
58753;BME280;44525;46.052;13.610;2023-06-19T02:16:54;65501.63;;;-149.14;100.00
58753;BME280;44525;46.052;13.610;2023-06-19T02:19:19;65501.63;;;-149.14;100.00
58753;BME280;44525;46.052;13.610;2023-06-19T02:21:44;65501.63;;;-149.14;100.00
58753;BME280;44525;46.052;13.610;2023-06-19T02:24:10;65501.63;;;-149.14;100.00
58753;BME280;44525;46.052;13.610;2023-06-19T02:26:35;65501.63;;;-149.14;100.00
58753;BME280;44525;46.052;13.610;2023-06-19T02:29:00;65501.63;;;-149.14;100.00
58753;BME280;44525;46.052;13.610;2023-06-19T02:31:26;65501.63;;;-149.14;100.00
58753;BME280;44525;46.052;13.610;2023-06-19T02:33:51;65501.63;;;-149.14;100.00
58753;BME280;44525;46.052;13.610;2023-06-19T02:36:16;65501.63;;;-149.14;100.00
58753;BME280;44525;46.052;13.610;2023-06-19T02:38:46;65501.63;;;-149.14;100.00
58753;BME280;44525;46.052;13.610;2023-06-19T02:41:12;65501.63;;;-149.14;100.00
58753;BME280;44525;46.052;13.610;2023-06-19T02:43:41;65501.63;;;-149.14;100.00
58753;BME280;44525;46.052;13.610;2023-06-19T02:46:07;65501.63;;;-149.14;100.00
58753;BME280;44525;46.052;13.610;2023-06-19T02:48:32;65501.63;;;-149.14;100.00
58753;BME280;44525;46.052;13.610;2023-06-19T02:50:57;65501.63;;;-149.14;100.00
58753;BME280;44525;46.052;13.610;2023-06-19T02:53:23;65501.63;;;-149.14;100.00
58753;BME280;44525;46.052;13.610;2023-06-19T02:55:48;65501.63;;;-149.14;100.00
58753;BME280;44525;46.052;13.610;2023-06-19T02:58:14;65501.63;;;-149.14;100.00
58753;BME280;44525;46.052;13.610;2023-06-19T03:00:39;65501.63;;;-149.14;100.00
58753;BME280;44525;46.052;13.610;2023-06-19T03:03:05;65501.63;;;-149.14;100.00
58753;BME280;44525;46.052;13.610;2023-06-19T03:05:30;65501.63;;;-149.14;100.00
58753;BME280;44525;46.052;13.610;2023-06-19T03:07:56;65501.63;;;-149.14;100.00
58753;BME280;44525;46.052;13.610;2023-06-19T03:10:21;65501.63;;;-149.14;100.00
58753;BME280;44525;46.052;13.610;2023-06-19T03:12:46;65501.63;;;-149.14;100.00
58753;BME280;44525;46.052;13.610;2023-06-19T03:15:12;65501.63;;;-149.14;100.00
58753;BME280;44525;46.052;13.610;2023-06-19T03:17:37;65501.63;;;-149.14;100.00
58753;BME280;44525;46.052;13.610;2023-06-19T03:20:03;65501.63;;;-149.14;100.00
58753;BME280;44525;46.052;13.610;2023-06-19T03:22:30;65501.63;;;-149.14;100.00
58753;BME280;44525;46.052;13.610;2023-06-19T03:24:56;65501.63;;;-149.14;100.00
58753;BME280;44525;46.052;13.610;2023-06-19T03:27:21;65501.63;;;-149.14;100.00
58753;BME280;44525;46.052;13.610;2023-06-19T03:29:46;65501.63;;;-149.14;100.00
58753;BME280;44525;46.052;13.610;2023-06-19T03:32:12;65501.63;;;-149.14;100.00
58753;BME280;44525;46.052;13.610;2023-06-19T03:34:37;65501.63;;;-149.14;100.00
58753;BME280;44525;46.052;13.610;2023-06-19T03:37:03;65501.63;;;-149.14;100.00
58753;BME280;44525;46.052;13.610;2023-06-19T03:39:28;65501.63;;;-149.14;100.00
58753;BME280;44525;46.052;13.610;2023-06-19T03:41:53;65501.63;;;-149.14;100.00
58753;BME280;44525;46.052;13.610;2023-06-19T03:44:19;65501.63;;;-149.14;100.00
58753;BME280;44525;46.052;13.610;2023-06-19T03:46:53;65501.63;;;-149.14;100.00
58753;BME280;44525;46.052;13.610;2023-06-19T03:49:19;65501.63;;;-149.14;100.00
58753;BME280;44525;46.052;13.610;2023-06-19T03:51:44;65501.63;;;-149.14;100.00
58753;BME280;44525;46.052;13.610;2023-06-19T03:54:09;65501.63;;;-149.14;100.00
58753;BME280;44525;46.052;13.610;2023-06-19T03:56:35;65501.63;;;-149.14;100.00
58753;BME280;44525;46.052;13.610;2023-06-19T03:59:00;65501.63;;;-149.14;100.00
58753;BME280;44525;46.052;13.610;2023-06-19T04:01:25;65501.63;;;-149.14;100.00
58753;BME280;44525;46.052;13.610;2023-06-19T04:07:12;65501.63;;;-149.14;100.00
58753;BME280;44525;46.052;13.610;2023-06-19T04:09:38;65501.63;;;-149.14;100.00
58753;BME280;44525;46.052;13.610;2023-06-19T04:12:04;65501.63;;;-149.14;100.00
58753;BME280;44525;46.052;13.610;2023-06-19T04:14:29;65501.63;;;-149.14;100.00
58753;BME280;44525;46.052;13.610;2023-06-19T04:16:55;65501.63;;;-149.14;100.00
58753;BME280;44525;46.052;13.610;2023-06-19T04:19:20;65501.63;;;-149.14;100.00
58753;BME280;44525;46.052;13.610;2023-06-19T04:21:45;65501.63;;;-149.14;100.00
58753;BME280;44525;46.052;13.610;2023-06-19T04:24:11;65501.63;;;-149.14;100.00
58753;BME280;44525;46.052;13.610;2023-06-19T04:26:36;65501.63;;;-149.14;100.00
58753;BME280;44525;46.052;13.610;2023-06-19T04:29:02;65501.63;;;-149.14;100.00
58753;BME280;44525;46.052;13.610;2023-06-19T04:31:27;65501.63;;;-149.14;100.00
58753;BME280;44525;46.052;13.610;2023-06-19T04:33:54;65501.63;;;-149.14;100.00
58753;BME280;44525;46.052;13.610;2023-06-19T04:36:21;65501.63;;;-149.14;100.00
58753;BME280;44525;46.052;13.610;2023-06-19T04:38:46;65501.63;;;-149.14;100.00
58753;BME280;44525;46.052;13.610;2023-06-19T04:41:12;65501.63;;;-149.14;100.00
58753;BME280;44525;46.052;13.610;2023-06-19T04:43:38;65501.63;;;-149.14;100.00
58753;BME280;44525;46.052;13.610;2023-06-19T04:46:06;65501.63;;;-149.14;100.00
58753;BME280;44525;46.052;13.610;2023-06-19T04:48:32;65501.63;;;-149.14;100.00
58753;BME280;44525;46.052;13.610;2023-06-19T04:50:57;65501.63;;;-149.14;100.00
58753;BME280;44525;46.052;13.610;2023-06-19T04:53:25;65501.63;;;-149.14;100.00
58753;BME280;44525;46.052;13.610;2023-06-19T04:55:51;65501.63;;;-149.14;100.00
58753;BME280;44525;46.052;13.610;2023-06-19T04:58:19;65501.63;;;-149.14;100.00
58753;BME280;44525;46.052;13.610;2023-06-19T05:00:46;65501.63;;;-149.14;100.00
58753;BME280;44525;46.052;13.610;2023-06-19T05:03:17;65501.63;;;-149.14;100.00
58753;BME280;44525;46.052;13.610;2023-06-19T05:05:43;65501.63;;;-149.14;100.00
58753;BME280;44525;46.052;13.610;2023-06-19T05:08:09;65501.63;;;-149.14;100.00
58753;BME280;44525;46.052;13.610;2023-06-19T05:10:34;65501.63;;;-149.14;100.00
58753;BME280;44525;46.052;13.610;2023-06-19T05:12:59;65501.63;;;-149.14;100.00
58753;BME280;44525;46.052;13.610;2023-06-19T05:15:25;65501.63;;;-149.14;100.00
58753;BME280;44525;46.052;13.610;2023-06-19T05:17:50;65501.63;;;-149.14;100.00
58753;BME280;44525;46.052;13.610;2023-06-19T05:20:16;65501.63;;;-149.14;100.00
58753;BME280;44525;46.052;13.610;2023-06-19T05:22:42;65501.63;;;-149.14;100.00
58753;BME280;44525;46.052;13.610;2023-06-19T05:28:19;65501.63;;;-149.14;100.00
58753;BME280;44525;46.052;13.610;2023-06-19T05:30:44;65501.63;;;-149.14;100.00
58753;BME280;44525;46.052;13.610;2023-06-19T05:33:10;65501.63;;;-149.14;100.00
58753;BME280;44525;46.052;13.610;2023-06-19T05:35:38;65501.63;;;-149.14;100.00
58753;BME280;44525;46.052;13.610;2023-06-19T05:38:04;65501.63;;;-149.14;100.00
58753;BME280;44525;46.052;13.610;2023-06-19T05:40:30;65501.63;;;-149.14;100.00
58753;BME280;44525;46.052;13.610;2023-06-19T05:42:55;65501.63;;;-149.14;100.00
58753;BME280;44525;46.052;13.610;2023-06-19T05:45:21;65501.63;;;-149.14;100.00
58753;BME280;44525;46.052;13.610;2023-06-19T05:47:46;65501.63;;;-149.14;100.00
58753;BME280;44525;46.052;13.610;2023-06-19T05:50:12;65501.63;;;-149.14;100.00
58753;BME280;44525;46.052;13.610;2023-06-19T05:52:37;65501.63;;;-149.14;100.00
58753;BME280;44525;46.052;13.610;2023-06-19T05:55:07;65501.63;;;-149.14;100.00
58753;BME280;44525;46.052;13.610;2023-06-19T05:57:50;65501.63;;;-149.14;100.00
58753;BME280;44525;46.052;13.610;2023-06-19T06:00:16;65501.63;;;-149.14;100.00
58753;BME280;44525;46.052;13.610;2023-06-19T06:02:42;65501.63;;;-149.14;100.00
58753;BME280;44525;46.052;13.610;2023-06-19T06:05:08;65501.63;;;-149.14;100.00
58753;BME280;44525;46.052;13.610;2023-06-19T06:07:36;65501.63;;;-149.14;100.00
58753;BME280;44525;46.052;13.610;2023-06-19T06:10:02;65501.63;;;-149.14;100.00
58753;BME280;44525;46.052;13.610;2023-06-19T06:12:27;65501.63;;;-149.14;100.00
58753;BME280;44525;46.052;13.610;2023-06-19T06:14:53;65501.63;;;-149.14;100.00
58753;BME280;44525;46.052;13.610;2023-06-19T06:17:18;65501.63;;;-149.14;100.00
58753;BME280;44525;46.052;13.610;2023-06-19T06:19:43;65501.63;;;-149.14;100.00
58753;BME280;44525;46.052;13.610;2023-06-19T06:22:09;65501.63;;;-149.14;100.00
58753;BME280;44525;46.052;13.610;2023-06-19T06:24:34;65501.63;;;-149.14;100.00
58753;BME280;44525;46.052;13.610;2023-06-19T06:26:59;65501.63;;;-149.14;100.00
58753;BME280;44525;46.052;13.610;2023-06-19T06:29:25;65501.63;;;-149.14;100.00
58753;BME280;44525;46.052;13.610;2023-06-19T06:31:50;65501.63;;;-149.14;100.00
58753;BME280;44525;46.052;13.610;2023-06-19T06:34:18;65501.63;;;-149.14;100.00
58753;BME280;44525;46.052;13.610;2023-06-19T06:36:44;65501.63;;;-149.14;100.00
58753;BME280;44525;46.052;13.610;2023-06-19T06:39:09;65501.63;;;-149.14;100.00
58753;BME280;44525;46.052;13.610;2023-06-19T06:41:35;65501.63;;;-149.14;100.00
58753;BME280;44525;46.052;13.610;2023-06-19T06:44:01;65501.63;;;-149.14;100.00
58753;BME280;44525;46.052;13.610;2023-06-19T06:46:26;65501.63;;;-149.14;100.00
58753;BME280;44525;46.052;13.610;2023-06-19T06:48:52;65501.63;;;-149.14;100.00
58753;BME280;44525;46.052;13.610;2023-06-19T06:51:17;65501.63;;;-149.14;100.00
58753;BME280;44525;46.052;13.610;2023-06-19T06:53:42;65501.63;;;-149.14;100.00
58753;BME280;44525;46.052;13.610;2023-06-19T06:56:08;65501.63;;;-149.14;100.00
58753;BME280;44525;46.052;13.610;2023-06-19T06:58:33;65501.63;;;-149.14;100.00
58753;BME280;44525;46.052;13.610;2023-06-19T07:00:58;65501.63;;;-149.14;100.00
58753;BME280;44525;46.052;13.610;2023-06-19T07:03:24;65501.63;;;-149.14;100.00
58753;BME280;44525;46.052;13.610;2023-06-19T07:05:49;65501.63;;;-149.14;100.00
58753;BME280;44525;46.052;13.610;2023-06-19T07:08:14;65501.63;;;-149.14;100.00
58753;BME280;44525;46.052;13.610;2023-06-19T07:10:40;65501.63;;;-149.14;100.00
58753;BME280;44525;46.052;13.610;2023-06-19T07:13:05;65501.63;;;-149.14;100.00
58753;BME280;44525;46.052;13.610;2023-06-19T07:15:31;65501.63;;;-149.14;100.00
58753;BME280;44525;46.052;13.610;2023-06-19T07:17:56;65501.63;;;-149.14;100.00
58753;BME280;44525;46.052;13.610;2023-06-19T07:20:22;65501.63;;;-149.14;100.00
58753;BME280;44525;46.052;13.610;2023-06-19T07:22:50;65501.63;;;-149.14;100.00
58753;BME280;44525;46.052;13.610;2023-06-19T07:25:17;65501.63;;;-149.14;100.00
58753;BME280;44525;46.052;13.610;2023-06-19T07:27:43;65501.63;;;-149.14;100.00
58753;BME280;44525;46.052;13.610;2023-06-19T07:30:08;65501.63;;;-149.14;100.00
58753;BME280;44525;46.052;13.610;2023-06-19T07:32:34;65501.63;;;-149.14;100.00
58753;BME280;44525;46.052;13.610;2023-06-19T07:34:59;65501.63;;;-149.14;100.00
58753;BME280;44525;46.052;13.610;2023-06-19T07:37:25;65501.63;;;-149.14;100.00
58753;BME280;44525;46.052;13.610;2023-06-19T07:39:51;65501.63;;;-149.14;100.00
58753;BME280;44525;46.052;13.610;2023-06-19T07:42:17;65501.63;;;-149.14;100.00
58753;BME280;44525;46.052;13.610;2023-06-19T07:44:43;65501.63;;;-149.14;100.00
58753;BME280;44525;46.052;13.610;2023-06-19T07:47:09;65501.63;;;-149.14;100.00
58753;BME280;44525;46.052;13.610;2023-06-19T07:49:35;65501.63;;;-149.14;100.00
58753;BME280;44525;46.052;13.610;2023-06-19T07:52:02;65501.63;;;-149.14;100.00
58753;BME280;44525;46.052;13.610;2023-06-19T07:54:28;65501.63;;;-149.14;100.00
58753;BME280;44525;46.052;13.610;2023-06-19T07:56:53;65501.63;;;-149.14;100.00
58753;BME280;44525;46.052;13.610;2023-06-19T07:59:19;65501.63;;;-149.14;100.00
58753;BME280;44525;46.052;13.610;2023-06-19T08:01:44;65501.63;;;-149.14;100.00
58753;BME280;44525;46.052;13.610;2023-06-19T08:04:10;65501.63;;;-149.14;100.00
58753;BME280;44525;46.052;13.610;2023-06-19T08:06:35;65501.63;;;-149.14;100.00
58753;BME280;44525;46.052;13.610;2023-06-19T08:09:00;65501.63;;;-149.14;100.00
58753;BME280;44525;46.052;13.610;2023-06-19T08:11:26;65501.63;;;-149.14;100.00
58753;BME280;44525;46.052;13.610;2023-06-19T08:13:52;65501.63;;;-149.14;100.00
58753;BME280;44525;46.052;13.610;2023-06-19T08:16:17;65501.63;;;-149.14;100.00
58753;BME280;44525;46.052;13.610;2023-06-19T08:18:44;65501.63;;;-149.14;100.00
58753;BME280;44525;46.052;13.610;2023-06-19T08:21:09;65501.63;;;-149.14;100.00
58753;BME280;44525;46.052;13.610;2023-06-19T08:23:35;65501.63;;;-149.14;100.00
58753;BME280;44525;46.052;13.610;2023-06-19T08:26:00;65501.63;;;-149.14;100.00
58753;BME280;44525;46.052;13.610;2023-06-19T08:28:25;65501.63;;;18.17;100.00
58753;BME280;44525;46.052;13.610;2023-06-19T08:30:51;65501.63;;;40.46;100.00
58753;BME280;44525;46.052;13.610;2023-06-19T08:33:16;65501.63;;;40.46;100.00
58753;BME280;44525;46.052;13.610;2023-06-19T08:35:42;65501.63;;;28.59;100.00
58753;BME280;44525;46.052;13.610;2023-06-19T08:38:08;65501.63;;;28.02;100.00
58753;BME280;44525;46.052;13.610;2023-06-19T08:40:34;65501.63;;;-149.14;100.00
58753;BME280;44525;46.052;13.610;2023-06-19T08:42:59;100642.72;;;27.93;100.00
58753;BME280;44525;46.052;13.610;2023-06-19T08:45:26;100641.97;;;27.99;100.00
58753;BME280;44525;46.052;13.610;2023-06-19T08:47:58;100643.94;;;27.88;100.00
58753;BME280;44525;46.052;13.610;2023-06-19T08:50:23;100643.13;;;28.09;100.00
58753;BME280;44525;46.052;13.610;2023-06-19T08:52:48;65501.63;;;28.27;100.00
58753;BME280;44525;46.052;13.610;2023-06-19T08:55:14;65501.63;;;28.56;100.00
58753;BME280;44525;46.052;13.610;2023-06-19T08:57:41;65501.63;;;-149.14;100.00
58753;BME280;44525;46.052;13.610;2023-06-19T09:00:07;65501.63;;;28.93;100.00
58753;BME280;44525;46.052;13.610;2023-06-19T09:02:43;65501.63;;;28.97;100.00
58753;BME280;44525;46.052;13.610;2023-06-19T09:05:17;65501.63;;;28.96;100.00
58753;BME280;44525;46.052;13.610;2023-06-19T09:07:44;65501.63;;;29.10;100.00
58753;BME280;44525;46.052;13.610;2023-06-19T09:10:17;65501.63;;;29.23;100.00
58753;BME280;44525;46.052;13.610;2023-06-19T09:12:43;65501.63;;;29.32;100.00
58753;BME280;44525;46.052;13.610;2023-06-19T09:15:14;65501.63;;;29.49;100.00
58753;BME280;44525;46.052;13.610;2023-06-19T09:17:39;65501.63;;;-149.14;100.00
58753;BME280;44525;46.052;13.610;2023-06-19T09:23:27;65501.63;;;29.62;100.00
58753;BME280;44525;46.052;13.610;2023-06-19T09:25:53;65501.63;;;29.53;100.00
58753;BME280;44525;46.052;13.610;2023-06-19T09:28:25;65501.63;;;29.44;100.00
58753;BME280;44525;46.052;13.610;2023-06-19T09:31:01;65501.63;;;-149.14;100.00
58753;BME280;44525;46.052;13.610;2023-06-19T09:33:29;65501.63;;;-149.14;100.00
58753;BME280;44525;46.052;13.610;2023-06-19T09:35:56;65501.63;;;29.95;100.00
58753;BME280;44525;46.052;13.610;2023-06-19T09:38:42;65501.63;;;-149.14;100.00
58753;BME280;44525;46.052;13.610;2023-06-19T09:41:07;65501.63;;;-149.14;100.00
58753;BME280;44525;46.052;13.610;2023-06-19T09:43:42;65501.63;;;-149.14;100.00
58753;BME280;44525;46.052;13.610;2023-06-19T09:46:08;65501.63;;;-149.14;100.00
58753;BME280;44525;46.052;13.610;2023-06-19T09:48:35;65501.63;;;-149.14;100.00
58753;BME280;44525;46.052;13.610;2023-06-19T09:51:09;65501.63;;;-149.14;100.00
58753;BME280;44525;46.052;13.610;2023-06-19T09:53:36;65501.63;;;-149.14;100.00
58753;BME280;44525;46.052;13.610;2023-06-19T09:56:02;65501.63;;;-149.14;100.00
58753;BME280;44525;46.052;13.610;2023-06-19T09:58:27;65501.63;;;-149.14;100.00
58753;BME280;44525;46.052;13.610;2023-06-19T10:00:54;65501.63;;;-149.14;100.00
58753;BME280;44525;46.052;13.610;2023-06-19T10:03:20;65501.63;;;-149.14;100.00
58753;BME280;44525;46.052;13.610;2023-06-19T10:05:46;65501.63;;;-149.14;100.00
58753;BME280;44525;46.052;13.610;2023-06-19T10:08:11;65501.63;;;-149.14;100.00
58753;BME280;44525;46.052;13.610;2023-06-19T10:10:48;65501.63;;;-149.14;100.00
58753;BME280;44525;46.052;13.610;2023-06-19T10:13:16;65501.63;;;-149.14;100.00
58753;BME280;44525;46.052;13.610;2023-06-19T10:15:44;65501.63;;;-149.14;100.00
58753;BME280;44525;46.052;13.610;2023-06-19T10:18:17;65501.63;;;-149.14;100.00
58753;BME280;44525;46.052;13.610;2023-06-19T10:20:44;65501.63;;;-149.14;100.00
58753;BME280;44525;46.052;13.610;2023-06-19T10:23:17;65501.63;;;-149.14;100.00
58753;BME280;44525;46.052;13.610;2023-06-19T10:29:15;65501.63;;;-149.14;100.00
58753;BME280;44525;46.052;13.610;2023-06-19T10:31:41;65501.63;;;-149.14;100.00
58753;BME280;44525;46.052;13.610;2023-06-19T10:34:06;65501.63;;;-149.14;100.00
58753;BME280;44525;46.052;13.610;2023-06-19T10:36:31;65501.63;;;-149.14;100.00
58753;BME280;44525;46.052;13.610;2023-06-19T10:38:57;65501.63;;;-149.14;100.00
58753;BME280;44525;46.052;13.610;2023-06-19T10:41:24;65501.63;;;-149.14;100.00
58753;BME280;44525;46.052;13.610;2023-06-19T10:44:01;65501.63;;;-149.14;100.00
58753;BME280;44525;46.052;13.610;2023-06-19T10:46:30;65501.63;;;-149.14;100.00
58753;BME280;44525;46.052;13.610;2023-06-19T10:48:57;65501.63;;;-149.14;100.00
58753;BME280;44525;46.052;13.610;2023-06-19T10:51:27;65501.63;;;-149.14;100.00
58753;BME280;44525;46.052;13.610;2023-06-19T10:53:54;65501.63;;;-149.14;100.00
58753;BME280;44525;46.052;13.610;2023-06-19T10:56:21;65501.63;;;-149.14;100.00
58753;BME280;44525;46.052;13.610;2023-06-19T10:58:47;65501.63;;;-149.14;100.00
58753;BME280;44525;46.052;13.610;2023-06-19T11:01:12;65501.63;;;-149.14;100.00
58753;BME280;44525;46.052;13.610;2023-06-19T11:03:38;65501.63;;;-149.14;100.00
58753;BME280;44525;46.052;13.610;2023-06-19T11:06:03;65501.63;;;-149.14;100.00
58753;BME280;44525;46.052;13.610;2023-06-19T11:08:28;65501.63;;;-149.14;100.00
58753;BME280;44525;46.052;13.610;2023-06-19T11:10:55;65501.63;;;-149.14;100.00
58753;BME280;44525;46.052;13.610;2023-06-19T11:13:20;65501.63;;;-149.14;100.00
58753;BME280;44525;46.052;13.610;2023-06-19T11:15:49;65501.63;;;-149.14;100.00
58753;BME280;44525;46.052;13.610;2023-06-19T11:18:16;65501.63;;;-149.14;100.00
58753;BME280;44525;46.052;13.610;2023-06-19T11:20:45;65501.63;;;-149.14;100.00
58753;BME280;44525;46.052;13.610;2023-06-19T11:23:12;65501.63;;;-149.14;100.00
58753;BME280;44525;46.052;13.610;2023-06-19T11:25:39;65501.63;;;-149.14;100.00
58753;BME280;44525;46.052;13.610;2023-06-19T11:28:13;65501.63;;;-149.14;100.00
58753;BME280;44525;46.052;13.610;2023-06-19T11:30:40;65501.63;;;-149.14;100.00
58753;BME280;44525;46.052;13.610;2023-06-19T11:33:34;65501.63;;;-149.14;100.00
58753;BME280;44525;46.052;13.610;2023-06-19T11:36:01;65501.63;;;-149.14;100.00
58753;BME280;44525;46.052;13.610;2023-06-19T11:38:27;65501.63;;;-149.14;100.00
58753;BME280;44525;46.052;13.610;2023-06-19T11:40:56;65501.63;;;-149.14;100.00
58753;BME280;44525;46.052;13.610;2023-06-19T11:43:31;65501.63;;;-149.14;100.00
58753;BME280;44525;46.052;13.610;2023-06-19T11:46:04;65501.63;;;-149.14;100.00
58753;BME280;44525;46.052;13.610;2023-06-19T11:48:29;65501.63;;;-149.14;100.00
58753;BME280;44525;46.052;13.610;2023-06-19T11:50:55;65501.63;;;-149.14;100.00
58753;BME280;44525;46.052;13.610;2023-06-19T11:53:21;65501.63;;;-149.14;100.00
58753;BME280;44525;46.052;13.610;2023-06-19T11:55:47;65501.63;;;-149.14;100.00
58753;BME280;44525;46.052;13.610;2023-06-19T11:58:12;65501.63;;;-149.14;100.00
58753;BME280;44525;46.052;13.610;2023-06-19T12:00:38;65501.63;;;-149.14;100.00
58753;BME280;44525;46.052;13.610;2023-06-19T12:03:04;65501.63;;;-149.14;100.00
58753;BME280;44525;46.052;13.610;2023-06-19T12:05:29;65501.63;;;-149.14;100.00
58753;BME280;44525;46.052;13.610;2023-06-19T12:07:55;65501.63;;;-149.14;100.00
58753;BME280;44525;46.052;13.610;2023-06-19T12:10:20;65501.63;;;-149.14;100.00
58753;BME280;44525;46.052;13.610;2023-06-19T12:12:45;65501.63;;;-149.14;100.00
58753;BME280;44525;46.052;13.610;2023-06-19T12:15:11;65501.63;;;-149.14;100.00
58753;BME280;44525;46.052;13.610;2023-06-19T12:17:36;65501.63;;;-149.14;100.00
58753;BME280;44525;46.052;13.610;2023-06-19T12:20:03;65501.63;;;-149.14;100.00
58753;BME280;44525;46.052;13.610;2023-06-19T12:22:33;65501.63;;;-149.14;100.00
58753;BME280;44525;46.052;13.610;2023-06-19T12:24:59;65501.63;;;-149.14;100.00
58753;BME280;44525;46.052;13.610;2023-06-19T12:27:24;65501.63;;;-149.14;100.00
58753;BME280;44525;46.052;13.610;2023-06-19T12:29:50;65501.63;;;-149.14;100.00
58753;BME280;44525;46.052;13.610;2023-06-19T12:32:15;65501.63;;;-149.14;100.00
58753;BME280;44525;46.052;13.610;2023-06-19T12:34:40;65501.63;;;-149.14;100.00